Time;durP1;ratioP1;P1;durP2;ratioP2;P2;SDS_P1;SDS_P2;PMS_P1;PMS_P2;Temp;Humidity;BMP_temperature;BMP_pressure;BME280_temperature;BME280_humidity;BME280_pressure;Samples;Min_cycle;Max_cycle;Signal;HPM_P1;HPM_P2
2023/12/09 00:00:15;;;;;;;62.88;32.15;;;5.60;99.90;;;;;;5050284;28;20096;-43
2023/12/09 00:02:41;;;;;;;67.60;33.35;;;5.60;99.90;;;;;;5050868;28;20032;-42
2023/12/09 00:05:06;;;;;;;71.68;33.72;;;5.60;99.90;;;;;;5050607;28;20025;-42
2023/12/09 00:07:32;;;;;;;67.05;33.33;;;5.60;99.90;;;;;;5051446;28;20052;-44
2023/12/09 00:09:58;;;;;;;72.47;32.92;;;5.50;99.90;;;;;;5050784;28;20381;-44
2023/12/09 00:12:23;;;;;;;63.03;32.60;;;5.50;99.90;;;;;;5050453;28;20052;-44
2023/12/09 00:14:49;;;;;;;66.30;33.55;;;5.50;99.90;;;;;;5055446;28;20029;-42
2023/12/09 00:17:14;;;;;;;69.10;32.83;;;5.50;99.90;;;;;;5036769;28;20021;-45
2023/12/09 00:19:40;;;;;;;69.55;32.80;;;5.30;99.90;;;;;;5037012;28;20104;-45
2023/12/09 00:22:05;;;;;;;67.75;34.50;;;5.30;99.90;;;;;;5054542;28;20247;-41
2023/12/09 00:24:31;;;;;;;65.35;32.22;;;5.20;99.90;;;;;;5036518;28;20048;-40
2023/12/09 00:26:56;;;;;;;65.03;33.17;;;5.10;99.90;;;;;;5054680;28;20044;-41
2023/12/09 00:29:22;;;;;;;66.97;31.50;;;5.10;99.90;;;;;;5054808;28;20025;-41
2023/12/09 00:31:47;;;;;;;63.63;29.50;;;5.10;99.90;;;;;;5036983;28;20020;-41
2023/12/09 00:34:13;;;;;;;63.15;30.45;;;5.10;99.90;;;;;;5054025;28;20060;-46
2023/12/09 00:36:38;;;;;;;63.15;32.72;;;5.10;99.90;;;;;;5054476;28;20052;-42
2023/12/09 00:39:05;;;;;;;69.70;33.55;;;5.10;99.90;;;;;;5054645;28;20028;-41
2023/12/09 00:41:30;;;;;;;76.13;35.10;;;5.10;99.90;;;;;;5054137;28;20017;-43
2023/12/09 00:43:56;;;;;;;64.00;30.60;;;5.10;99.90;;;;;;5021587;22;20505;-52
2023/12/09 00:46:21;;;;;;;131.98;66.75;;;5.00;99.90;;;;;;4991547;28;20500;-53
2023/12/09 00:48:47;;;;;;;152.48;81.60;;;5.00;99.90;;;;;;4974779;28;20064;-52
2023/12/09 00:51:13;;;;;;;160.48;82.15;;;5.10;99.90;;;;;;4952582;28;20070;-49
2023/12/09 00:53:39;;;;;;;70.70;35.90;;;5.10;99.90;;;;;;4952658;29;20035;-48
2023/12/09 00:56:04;;;;;;;78.07;35.70;;;5.10;99.90;;;;;;4952709;29;20409;-50
2023/12/09 00:58:30;;;;;;;64.93;31.48;;;5.10;99.90;;;;;;4952477;29;20039;-51
2023/12/09 01:00:55;;;;;;;66.85;32.00;;;5.20;99.90;;;;;;4935091;29;20067;-57
2023/12/09 01:03:21;;;;;;;56.55;31.67;;;5.30;99.90;;;;;;4934926;29;20035;-50
2023/12/09 01:05:46;;;;;;;63.33;32.83;;;5.20;99.90;;;;;;4952702;29;20055;-53
2023/12/09 01:08:12;;;;;;;63.55;31.20;;;5.40;99.90;;;;;;4952409;29;20027;-52
2023/12/09 01:10:37;;;;;;;65.63;32.30;;;5.40;99.90;;;;;;4952265;29;20035;-48
2023/12/09 01:13:03;;;;;;;59.58;32.28;;;5.50;99.90;;;;;;4952891;29;20072;-50
2023/12/09 01:15:28;;;;;;;56.28;29.40;;;5.30;99.90;;;;;;4953105;28;20398;-52
2023/12/09 01:17:54;;;;;;;61.90;31.08;;;5.30;99.90;;;;;;4952672;29;20030;-50
2023/12/09 01:20:19;;;;;;;57.30;29.83;;;5.30;99.90;;;;;;4952250;29;20158;-52
2023/12/09 01:22:45;;;;;;;57.75;29.35;;;5.30;99.90;;;;;;4951936;29;20023;-53
2023/12/09 01:25:10;;;;;;;51.75;27.80;;;5.30;99.90;;;;;;4952325;29;20030;-50
2023/12/09 01:27:36;;;;;;;58.47;30.95;;;5.30;99.90;;;;;;4952209;29;20289;-51
2023/12/09 01:30:03;;;;;;;56.80;28.60;;;5.40;99.90;;;;;;4952215;29;20514;-49
2023/12/09 01:32:29;;;;;;;50.33;26.30;;;5.30;99.90;;;;;;4951584;28;20482;-52
2023/12/09 01:34:55;;;;;;;48.67;26.15;;;5.50;99.90;;;;;;4952102;29;20023;-54
2023/12/09 01:37:21;;;;;;;60.38;30.75;;;5.50;99.90;;;;;;4952068;29;20039;-52
2023/12/09 01:39:47;;;;;;;52.90;28.55;;;5.60;99.90;;;;;;4951797;28;20054;-50
2023/12/09 01:42:14;;;;;;;58.50;29.40;;;5.50;99.90;;;;;;4951563;28;20394;-53
2023/12/09 01:44:39;;;;;;;51.97;29.52;;;5.50;99.90;;;;;;4951900;28;20042;-53
2023/12/09 01:47:06;;;;;;;53.75;28.88;;;5.50;99.90;;;;;;4950988;28;20444;-53
2023/12/09 01:49:33;;;;;;;56.40;29.20;;;5.60;99.90;;;;;;4951811;28;20391;-54
2023/12/09 01:52:00;;;;;;;51.10;27.58;;;5.60;99.90;;;;;;4951500;29;20479;-56
2023/12/09 01:54:26;;;;;;;49.67;27.45;;;5.40;99.90;;;;;;4934623;29;20027;-56
2023/12/09 01:56:52;;;;;;;45.60;26.90;;;5.40;99.90;;;;;;4951789;29;20016;-52
2023/12/09 01:59:18;;;;;;;49.20;26.48;;;5.40;99.90;;;;;;4934625;29;20020;-50
2023/12/09 02:01:44;;;;;;;46.30;26.95;;;5.40;99.90;;;;;;4951179;29;20042;-56
2023/12/09 02:04:10;;;;;;;52.80;28.00;;;5.40;99.90;;;;;;4934393;29;20023;-51
2023/12/09 02:06:35;;;;;;;48.92;26.88;;;5.40;99.90;;;;;;4951649;28;20331;-51
2023/12/09 02:09:02;;;;;;;54.72;30.00;;;5.30;99.90;;;;;;4951697;28;20498;-52
2023/12/09 02:11:40;;;;;;;50.22;28.23;;;5.30;99.90;;;;;;4951395;29;20039;-51
2023/12/09 02:14:13;;;;;;;51.38;29.60;;;5.40;99.90;;;;;;4951564;29;20511;-51
2023/12/09 02:16:46;;;;;;;57.72;29.02;;;5.50;99.90;;;;;;4951817;29;20035;-54
2023/12/09 02:19:13;;;;;;;59.08;30.35;;;5.40;99.90;;;;;;4951892;29;20027;-52
2023/12/09 02:21:58;;;;;;;61.85;31.88;;;5.30;99.90;;;;;;4950968;29;20512;-49
2023/12/09 02:24:24;;;;;;;67.60;32.57;;;5.40;99.90;;;;;;4951156;28;20036;-50
2023/12/09 02:26:51;;;;;;;57.45;31.42;;;5.30;99.90;;;;;;4951349;29;20263;-52
2023/12/09 02:29:17;;;;;;;62.88;32.38;;;5.20;99.90;;;;;;4934023;29;20031;-51
2023/12/09 02:31:45;;;;;;;68.25;32.92;;;5.20;99.90;;;;;;4933661;29;20118;-51
2023/12/09 02:34:13;;;;;;;69.40;33.00;;;5.30;99.90;;;;;;4933982;29;20031;-50
2023/12/09 02:36:40;;;;;;;61.72;30.58;;;5.30;99.90;;;;;;4951005;28;20491;-53
2023/12/09 02:39:08;;;;;;;72.47;34.03;;;5.40;99.90;;;;;;4950989;29;20498;-55
2023/12/09 02:41:35;;;;;;;73.35;34.72;;;5.40;99.90;;;;;;4950571;29;20050;-49
2023/12/09 02:44:00;;;;;;;73.55;36.78;;;5.50;99.90;;;;;;4933820;29;20035;-55
2023/12/09 02:46:26;;;;;;;71.18;35.47;;;5.50;99.90;;;;;;4933921;29;20394;-54
2023/12/09 02:48:51;;;;;;;80.85;36.67;;;5.50;99.90;;;;;;4951059;29;20023;-58
2023/12/09 02:51:17;;;;;;;72.53;37.13;;;5.50;99.90;;;;;;4950685;29;20050;-48
2023/12/09 02:53:44;;;;;;;72.40;35.83;;;5.40;99.90;;;;;;4933725;29;20596;-51
2023/12/09 02:56:10;;;;;;;73.32;37.90;;;5.30;99.90;;;;;;4950924;29;20027;-50
2023/12/09 02:58:35;;;;;;;73.53;35.63;;;5.30;99.90;;;;;;4950811;28;20047;-52
2023/12/09 03:01:01;;;;;;;72.40;36.30;;;5.30;99.90;;;;;;4934016;29;20023;-50
2023/12/09 03:03:26;;;;;;;68.82;35.58;;;5.30;99.90;;;;;;4951491;29;20027;-50
2023/12/09 03:05:52;;;;;;;70.97;33.40;;;5.20;99.90;;;;;;4951420;29;20047;-53
2023/12/09 03:08:17;;;;;;;61.63;32.55;;;5.20;99.90;;;;;;4933635;29;20024;-53
2023/12/09 03:10:43;;;;;;;78.90;35.72;;;5.30;99.90;;;;;;4950711;28;20104;-50
2023/12/09 03:13:08;;;;;;;62.53;32.55;;;5.30;99.90;;;;;;4950463;29;20073;-50
2023/12/09 03:15:34;;;;;;;69.80;32.53;;;5.30;99.90;;;;;;4950771;29;20042;-50
2023/12/09 03:17:59;;;;;;;64.35;31.88;;;5.30;99.90;;;;;;4933679;29;20478;-50
2023/12/09 03:20:25;;;;;;;61.88;30.45;;;5.40;99.90;;;;;;4950612;29;20027;-49
2023/12/09 03:22:50;;;;;;;54.80;29.90;;;5.40;99.90;;;;;;4950387;28;20024;-54
2023/12/09 03:25:16;;;;;;;57.33;28.80;;;5.50;99.90;;;;;;4950888;29;20043;-50
2023/12/09 03:27:41;;;;;;;47.90;27.70;;;5.50;99.90;;;;;;4951012;29;20031;-52
2023/12/09 03:30:07;;;;;;;59.58;29.98;;;5.60;99.90;;;;;;4950696;29;20023;-56
2023/12/09 03:32:33;;;;;;;56.47;30.38;;;5.60;99.90;;;;;;4950310;28;20030;-53
2023/12/09 03:34:58;;;;;;;59.20;30.02;;;5.70;99.90;;;;;;4951156;29;20035;-49
2023/12/09 03:37:24;;;;;;;58.25;30.67;;;5.70;99.90;;;;;;4950488;29;20460;-49
2023/12/09 03:39:49;;;;;;;52.30;28.35;;;5.80;99.90;;;;;;4950607;29;20035;-52
2023/12/09 03:42:15;;;;;;;59.47;31.02;;;6.00;99.90;;;;;;4950291;29;20027;-47
2023/12/09 03:44:40;;;;;;;59.10;29.40;;;5.90;99.90;;;;;;4950835;28;20027;-51
2023/12/09 03:47:06;;;;;;;50.72;28.08;;;6.00;99.90;;;;;;4950534;28;20463;-49
2023/12/09 03:49:32;;;;;;;46.70;28.33;;;6.00;99.90;;;;;;4950512;29;20032;-56
2023/12/09 03:51:57;;;;;;;57.28;29.98;;;6.10;99.90;;;;;;4949955;29;20446;-49
2023/12/09 03:54:23;;;;;;;49.72;27.98;;;6.20;99.90;;;;;;4950478;29;20102;-53
2023/12/09 03:56:49;;;;;;;47.33;27.38;;;6.30;99.90;;;;;;4950347;28;20024;-54
2023/12/09 03:59:14;;;;;;;48.75;26.38;;;6.20;99.90;;;;;;4950221;29;20027;-52
2023/12/09 04:01:50;;;;;;;47.65;26.83;;;6.20;99.90;;;;;;4949883;28;20031;-51
2023/12/09 04:04:16;;;;;;;42.15;25.45;;;6.10;99.90;;;;;;4950027;29;20015;-52
2023/12/09 04:06:41;;;;;;;45.42;25.65;;;6.10;99.90;;;;;;4950369;28;20447;-49
2023/12/09 04:09:09;;;;;;;45.30;24.83;;;6.10;99.90;;;;;;4950825;29;20110;-51
2023/12/09 04:11:34;;;;;;;45.75;26.92;;;6.00;99.90;;;;;;4953218;28;20142;-54
2023/12/09 04:14:00;;;;;;;41.10;26.30;;;6.10;99.90;;;;;;4953436;28;20051;-50
2023/12/09 04:16:25;;;;;;;49.75;27.40;;;6.20;99.90;;;;;;4953507;28;20031;-53
2023/12/09 04:18:51;;;;;;;49.17;27.80;;;6.10;99.90;;;;;;4953577;29;20089;-51
2023/12/09 04:21:17;;;;;;;50.97;28.45;;;6.10;99.90;;;;;;4935845;29;20035;-50
2023/12/09 04:23:43;;;;;;;49.00;26.85;;;6.10;99.90;;;;;;4953285;28;20551;-51
2023/12/09 04:26:09;;;;;;;53.30;28.83;;;6.10;99.90;;;;;;4953462;29;20132;-50
2023/12/09 04:28:34;;;;;;;49.03;27.52;;;6.10;99.90;;;;;;4953438;28;20364;-49
2023/12/09 04:31:00;;;;;;;45.88;27.63;;;6.00;99.90;;;;;;4953189;28;20445;-53
2023/12/09 04:33:25;;;;;;;45.40;25.83;;;6.00;99.90;;;;;;4953202;29;20039;-52
2023/12/09 04:35:51;;;;;;;34.47;22.40;;;6.00;99.90;;;;;;4935889;28;20031;-48
2023/12/09 04:38:16;;;;;;;40.42;23.85;;;6.00;99.90;;;;;;4953472;29;20509;-49
2023/12/09 04:40:42;;;;;;;39.13;24.00;;;6.00;99.90;;;;;;4953379;29;20501;-51
2023/12/09 04:43:08;;;;;;;44.08;24.45;;;6.00;99.90;;;;;;4952791;28;20024;-54
2023/12/09 04:45:34;;;;;;;35.90;23.80;;;6.20;99.90;;;;;;4936036;28;20031;-54
2023/12/09 04:47:59;;;;;;;43.17;25.48;;;6.10;99.90;;;;;;4953046;29;20028;-49
2023/12/09 04:50:25;;;;;;;41.03;24.00;;;6.30;99.90;;;;;;4952852;28;20039;-51
2023/12/09 04:52:50;;;;;;;39.75;24.00;;;6.10;99.90;;;;;;4952537;29;20039;-55
2023/12/09 04:55:15;;;;;;;38.50;24.33;;;6.10;99.90;;;;;;4935843;29;20042;-47
2023/12/09 04:57:41;;;;;;;41.85;24.98;;;6.00;99.90;;;;;;4936047;29;20110;-50
2023/12/09 05:00:10;;;;;;;48.35;25.75;;;6.20;99.90;;;;;;4952862;28;20024;-51
2023/12/09 05:02:36;;;;;;;52.10;26.98;;;6.20;99.90;;;;;;4952513;29;20023;-49
2023/12/09 05:05:03;;;;;;;54.78;28.45;;;6.30;99.90;;;;;;4952840;29;20492;-52
2023/12/09 05:07:28;;;;;;;55.72;29.70;;;6.70;99.90;;;;;;4952842;28;20030;-52
2023/12/09 05:09:54;;;;;;;64.38;29.90;;;6.20;99.90;;;;;;4952675;29;20128;-50
2023/12/09 05:12:20;;;;;;;64.28;31.75;;;6.30;99.90;;;;;;4952317;28;20042;-51
2023/12/09 05:14:45;;;;;;;67.30;32.65;;;6.20;99.90;;;;;;4952897;28;20110;-52
2023/12/09 05:17:11;;;;;;;67.22;32.35;;;6.20;99.90;;;;;;4952633;28;20076;-53
2023/12/09 05:19:37;;;;;;;65.20;31.67;;;6.00;99.90;;;;;;4952601;28;20026;-56
2023/12/09 05:22:02;;;;;;;75.13;31.67;;;6.00;99.90;;;;;;4952194;28;20031;-52
2023/12/09 05:24:28;;;;;;;64.35;31.17;;;6.10;99.90;;;;;;4952792;29;20023;-51
2023/12/09 05:26:54;;;;;;;92.85;32.28;;;6.10;99.90;;;;;;4952534;29;20077;-50
2023/12/09 05:29:20;;;;;;;71.18;32.53;;;6.00;99.90;;;;;;4935294;29;20027;-56
2023/12/09 05:31:45;;;;;;;64.50;33.65;;;6.00;99.90;;;;;;4952966;28;20037;-54
2023/12/09 05:34:10;;;;;;;56.60;29.92;;;5.90;99.90;;;;;;4952227;29;20030;-51
2023/12/09 05:36:38;;;;;;;58.22;31.38;;;5.90;99.90;;;;;;4952439;29;20043;-51
2023/12/09 05:39:05;;;;;;;65.05;33.75;;;6.00;99.90;;;;;;4952373;28;20453;-50
2023/12/09 05:41:30;;;;;;;84.20;29.92;;;6.00;99.90;;;;;;4934790;28;20034;-55
2023/12/09 05:43:56;;;;;;;55.55;29.70;;;6.00;99.90;;;;;;4952054;29;20043;-52
2023/12/09 05:46:21;;;;;;;66.65;30.38;;;6.20;99.90;;;;;;4935074;29;20029;-51
2023/12/09 05:48:48;;;;;;;59.40;29.48;;;6.10;99.90;;;;;;4952326;28;20023;-51
2023/12/09 05:51:13;;;;;;;64.65;30.02;;;6.20;99.90;;;;;;4952338;29;20035;-51
2023/12/09 05:53:40;;;;;;;66.45;30.42;;;6.30;99.90;;;;;;4934785;29;20029;-51
2023/12/09 05:56:14;;;;;;;53.33;28.13;;;6.40;99.90;;;;;;4952023;29;20056;-50
2023/12/09 05:58:40;;;;;;;60.28;28.98;;;6.50;99.90;;;;;;4952263;28;20399;-52
2023/12/09 06:01:06;;;;;;;60.65;27.95;;;6.50;99.90;;;;;;4951902;29;20043;-52
2023/12/09 06:03:32;;;;;;;57.17;30.02;;;6.50;99.90;;;;;;4951816;29;20031;-49
2023/12/09 06:05:58;;;;;;;66.90;30.00;;;6.50;99.90;;;;;;4952188;29;20394;-52
2023/12/09 06:08:23;;;;;;;58.22;28.92;;;6.40;99.90;;;;;;4934989;29;20023;-53
2023/12/09 06:10:49;;;;;;;52.15;29.92;;;6.30;99.90;;;;;;4952065;28;20035;-53
2023/12/09 06:13:15;;;;;;;48.35;27.58;;;6.20;99.90;;;;;;4955749;28;20444;-50
2023/12/09 06:15:41;;;;;;;52.67;25.65;;;6.20;99.90;;;;;;4948245;28;20023;-55
2023/12/09 06:18:06;;;;;;;49.20;26.85;;;6.20;99.90;;;;;;4934523;29;20498;-53
2023/12/09 06:20:32;;;;;;;53.22;27.27;;;6.20;99.90;;;;;;4964841;28;20034;-51
2023/12/09 06:22:57;;;;;;;43.40;24.85;;;6.30;99.90;;;;;;4970804;28;20031;-52
2023/12/09 06:25:22;;;;;;;49.03;23.10;;;6.30;99.90;;;;;;4953700;28;20023;-57
2023/12/09 06:27:48;;;;;;;43.53;24.95;;;6.30;99.90;;;;;;4965218;28;20440;-55
2023/12/09 06:30:14;;;;;;;39.13;23.65;;;6.30;99.90;;;;;;4954660;28;20027;-48
2023/12/09 06:32:41;;;;;;;49.00;22.85;;;6.30;99.90;;;;;;4953634;28;20023;-55
2023/12/09 06:35:07;;;;;;;42.70;22.55;;;6.40;99.90;;;;;;4969349;28;20076;-53
2023/12/09 06:37:33;;;;;;;40.78;22.58;;;6.30;99.90;;;;;;4954489;28;20057;-55
2023/12/09 06:39:59;;;;;;;37.22;22.38;;;6.40;99.90;;;;;;4970694;28;20076;-56
2023/12/09 06:42:24;;;;;;;32.67;21.50;;;6.40;99.90;;;;;;4970342;28;20417;-56
2023/12/09 06:44:50;;;;;;;37.75;21.58;;;6.40;99.90;;;;;;4971349;28;20029;-52
2023/12/09 06:47:15;;;;;;;38.05;20.27;;;6.40;99.90;;;;;;4970654;28;20019;-55
2023/12/09 06:49:41;;;;;;;39.35;19.85;;;6.40;99.90;;;;;;4959092;28;20028;-54
2023/12/09 06:52:06;;;;;;;35.60;20.58;;;6.50;99.90;;;;;;4950961;29;20482;-54
2023/12/09 06:54:32;;;;;;;37.65;19.58;;;6.50;99.90;;;;;;4951491;29;20096;-58
2023/12/09 06:56:57;;;;;;;39.90;20.45;;;6.50;99.90;;;;;;4952243;28;20027;-56
2023/12/09 06:59:23;;;;;;;36.13;19.30;;;6.60;99.90;;;;;;4969561;28;20498;-58
2023/12/09 07:01:49;;;;;;;28.15;18.35;;;6.60;99.90;;;;;;4963312;28;20038;-55
2023/12/09 07:04:17;;;;;;;32.15;19.27;;;6.60;99.90;;;;;;4951061;28;20030;-52
2023/12/09 07:06:43;;;;;;;32.78;17.67;;;6.60;99.90;;;;;;4951094;29;20069;-57
2023/12/09 07:09:09;;;;;;;35.08;18.92;;;6.60;99.90;;;;;;4951144;29;20024;-57
2023/12/09 07:11:34;;;;;;;32.67;17.70;;;6.60;99.90;;;;;;4950824;29;20031;-61
2023/12/09 07:14:00;;;;;;;38.13;18.85;;;6.60;99.90;;;;;;4950876;29;20544;-56
2023/12/09 07:16:25;;;;;;;42.15;18.70;;;6.70;99.90;;;;;;4952842;28;20039;-53
2023/12/09 07:18:53;;;;;;;34.47;19.40;;;6.70;99.90;;;;;;4951060;29;20066;-57
2023/12/09 07:21:18;;;;;;;36.22;19.80;;;6.70;99.90;;;;;;4951803;28;20023;-51
2023/12/09 07:23:44;;;;;;;36.95;18.60;;;6.70;99.90;;;;;;4967933;28;20056;-52
2023/12/09 07:26:11;;;;;;;38.53;19.20;;;6.70;99.90;;;;;;4970276;28;20148;-55
2023/12/09 07:28:36;;;;;;;39.42;19.50;;;6.70;99.90;;;;;;4969928;28;20454;-58
2023/12/09 07:31:02;;;;;;;29.45;19.90;;;6.70;99.90;;;;;;4969708;28;20096;-56
2023/12/09 07:33:28;;;;;;;33.88;19.15;;;6.80;99.90;;;;;;4970090;28;20048;-57
2023/12/09 07:35:53;;;;;;;42.33;20.08;;;6.80;99.90;;;;;;4969875;28;20080;-56
2023/12/09 07:38:19;;;;;;;44.45;20.88;;;6.80;99.90;;;;;;4969897;28;20510;-55
2023/12/09 07:40:44;;;;;;;36.28;20.10;;;6.90;99.90;;;;;;4956942;28;20046;-55
2023/12/09 07:43:10;;;;;;;38.17;21.50;;;6.90;99.90;;;;;;4950254;28;20434;-55
2023/12/09 07:45:36;;;;;;;40.67;20.30;;;6.90;99.90;;;;;;4953049;29;20410;-54
2023/12/09 07:48:03;;;;;;;35.45;20.73;;;6.90;99.90;;;;;;4955799;28;20073;-52
2023/12/09 07:50:32;;;;;;;40.95;19.88;;;7.00;99.90;;;;;;4954200;28;20383;-54
2023/12/09 07:52:58;;;;;;;46.17;21.10;;;7.00;99.90;;;;;;4937185;28;20055;-57
2023/12/09 07:55:23;;;;;;;37.92;21.08;;;7.00;99.90;;;;;;4953920;29;20062;-54
2023/12/09 07:57:49;;;;;;;43.10;23.05;;;7.00;99.90;;;;;;4955802;28;20039;-54
2023/12/09 08:00:14;;;;;;;39.55;21.35;;;7.00;99.90;;;;;;4936272;29;20510;-50
2023/12/09 08:02:40;;;;;;;43.60;21.45;;;7.00;99.90;;;;;;4953634;28;20079;-52
2023/12/09 08:05:06;;;;;;;36.17;21.35;;;7.10;99.90;;;;;;4955887;28;20023;-53
2023/12/09 08:07:31;;;;;;;34.17;21.33;;;7.10;99.90;;;;;;4953436;28;20027;-53
2023/12/09 08:09:57;;;;;;;40.47;20.92;;;7.10;99.90;;;;;;4954051;29;20031;-58
2023/12/09 08:12:22;;;;;;;42.53;22.00;;;7.10;99.90;;;;;;4951837;28;20413;-53
2023/12/09 08:14:48;;;;;;;46.60;22.65;;;7.10;99.90;;;;;;4959668;28;20061;-52
2023/12/09 08:17:13;;;;;;;43.88;23.15;;;7.10;99.90;;;;;;4972490;28;20405;-55
2023/12/09 08:19:39;;;;;;;42.05;22.83;;;7.20;99.90;;;;;;4970680;28;20039;-55
2023/12/09 08:22:04;;;;;;;38.75;22.50;;;7.10;99.90;;;;;;4972296;28;20031;-56
2023/12/09 08:24:30;;;;;;;44.33;22.80;;;7.20;99.90;;;;;;4972571;28;20503;-52
2023/12/09 08:26:55;;;;;;;40.75;23.42;;;7.10;99.90;;;;;;4972717;28;20027;-53
2023/12/09 08:29:21;;;;;;;45.05;23.98;;;7.20;99.90;;;;;;4970559;28;20037;-54
2023/12/09 08:31:49;;;;;;;43.17;25.88;;;7.20;99.90;;;;;;4953907;28;20383;-54
2023/12/09 08:34:15;;;;;;;49.20;26.38;;;7.10;99.90;;;;;;4953101;28;20027;-54
2023/12/09 08:36:41;;;;;;;50.13;25.92;;;7.20;99.90;;;;;;4936220;29;20035;-54
2023/12/09 08:39:08;;;;;;;55.30;24.73;;;7.30;99.90;;;;;;4953312;29;20027;-55
2023/12/09 08:41:33;;;;;;;46.08;25.42;;;7.20;99.90;;;;;;4958396;28;20021;-54
2023/12/09 08:43:59;;;;;;;48.45;26.50;;;7.20;99.90;;;;;;4972142;28;20039;-55
2023/12/09 08:46:24;;;;;;;51.63;26.75;;;7.20;99.90;;;;;;4972413;28;20027;-53
2023/12/09 08:48:50;;;;;;;50.30;26.50;;;7.20;99.90;;;;;;4971834;28;20386;-56
2023/12/09 08:51:16;;;;;;;49.08;27.33;;;7.10;99.90;;;;;;4972253;28;20401;-51
2023/12/09 08:53:41;;;;;;;47.17;26.30;;;7.20;99.90;;;;;;4972045;28;20035;-56
2023/12/09 08:56:07;;;;;;;50.28;27.77;;;7.20;99.90;;;;;;4954344;28;20027;-57
2023/12/09 08:58:33;;;;;;;46.90;26.20;;;7.20;99.90;;;;;;4971918;28;20031;-54
2023/12/09 09:00:58;;;;;;;49.40;28.20;;;7.20;99.90;;;;;;4971745;28;20023;-54
2023/12/09 09:03:24;;;;;;;49.97;27.60;;;7.30;99.90;;;;;;4971768;28;20076;-55
2023/12/09 09:05:49;;;;;;;45.85;26.85;;;7.30;99.90;;;;;;4972101;28;20042;-52
2023/12/09 09:08:15;;;;;;;49.42;30.08;;;7.30;99.90;;;;;;4960354;28;20034;-56
2023/12/09 09:10:40;;;;;;;43.03;25.77;;;7.40;99.90;;;;;;4952597;29;20542;-53
2023/12/09 09:13:06;;;;;;;46.30;25.55;;;7.40;99.90;;;;;;4964613;28;20462;-54
2023/12/09 09:15:32;;;;;;;54.28;25.40;;;7.40;99.90;;;;;;4972007;28;20046;-55
2023/12/09 09:17:57;;;;;;;45.30;26.23;;;7.40;99.90;;;;;;4954690;28;20035;-55
2023/12/09 09:20:24;;;;;;;43.10;22.48;;;7.50;99.90;;;;;;4971712;28;20059;-55
2023/12/09 09:22:49;;;;;;;38.55;23.00;;;7.50;99.90;;;;;;4967552;28;20098;-54
2023/12/09 09:25:15;;;;;;;46.90;23.70;;;7.60;99.90;;;;;;5015850;28;20083;-53
2023/12/09 09:27:41;;;;;;;44.92;22.08;;;7.60;99.90;;;;;;4960156;28;20077;-56
2023/12/09 09:30:07;;;;;;;51.13;22.30;;;7.70;99.90;;;;;;4954232;28;20406;-53
2023/12/09 09:32:32;;;;;;;35.78;22.42;;;7.70;99.90;;;;;;4960206;28;20035;-52
2023/12/09 09:34:58;;;;;;;43.38;21.58;;;7.70;99.90;;;;;;4958252;28;20041;-55
2023/12/09 09:37:23;;;;;;;34.13;20.10;;;7.70;99.90;;;;;;4971583;28;20061;-54
2023/12/09 09:39:49;;;;;;;39.17;19.92;;;7.80;99.90;;;;;;4961417;28;20042;-53
2023/12/09 09:42:36;;;;;;;36.80;18.90;;;7.80;99.90;;;;;;4966626;28;20073;-53
2023/12/09 09:45:22;;;;;;;39.00;20.00;;;7.80;99.90;;;;;;4952943;28;20054;-53
2023/12/09 09:47:52;;;;;;;33.88;19.70;;;7.80;99.90;;;;;;4951831;28;20027;-57
2023/12/09 09:50:24;;;;;;;42.83;19.30;;;7.80;99.90;;;;;;4952054;29;20541;-54
2023/12/09 09:52:50;;;;;;;41.00;20.20;;;7.90;99.90;;;;;;4951642;29;20027;-57
2023/12/09 09:55:18;;;;;;;39.95;20.50;;;7.90;99.90;;;;;;4952213;29;20450;-53
2023/12/09 09:57:44;;;;;;;35.78;20.10;;;7.90;99.90;;;;;;4951854;28;20035;-51
2023/12/09 10:00:14;;;;;;;37.97;21.00;;;8.00;99.90;;;;;;4934584;28;20042;-52
2023/12/09 10:02:47;;;;;;;35.40;18.52;;;7.90;99.90;;;;;;4951635;28;20019;-54
2023/12/09 10:05:15;;;;;;;37.58;19.73;;;7.90;99.90;;;;;;4951727;28;20054;-54
2023/12/09 10:07:42;;;;;;;32.33;19.77;;;8.00;99.90;;;;;;4951067;28;20027;-52
2023/12/09 10:10:08;;;;;;;35.65;18.52;;;8.10;99.90;;;;;;4951671;28;20402;-56
2023/12/09 10:12:35;;;;;;;37.22;18.45;;;8.20;99.90;;;;;;4951200;29;20103;-59
2023/12/09 10:15:01;;;;;;;35.72;17.80;;;8.30;99.90;;;;;;4934426;29;20118;-55
2023/12/09 10:17:27;;;;;;;28.08;16.48;;;8.30;99.90;;;;;;4962814;28;20124;-51
2023/12/09 10:19:57;;;;;;;26.80;16.58;;;8.40;99.90;;;;;;4962655;28;20545;-47
2023/12/09 10:22:24;;;;;;;31.48;18.70;;;8.40;99.90;;;;;;4939340;28;20050;-52
2023/12/09 10:24:51;;;;;;;35.88;17.85;;;8.40;99.90;;;;;;4936592;28;20114;-54
2023/12/09 10:27:22;;;;;;;32.47;18.17;;;8.50;99.90;;;;;;4971297;28;20034;-51
2023/12/09 10:29:48;;;;;;;29.50;16.85;;;8.50;99.90;;;;;;4971213;28;20018;-53
2023/12/09 10:32:15;;;;;;;31.77;16.17;;;8.60;99.90;;;;;;4970971;28;20047;-51
2023/12/09 10:34:41;;;;;;;33.65;15.48;;;8.50;99.90;;;;;;4960282;28;20061;-54
2023/12/09 10:37:10;;;;;;;24.90;13.98;;;8.60;99.90;;;;;;4951000;28;20437;-51
2023/12/09 10:39:36;;;;;;;26.20;14.45;;;8.70;99.90;;;;;;4966596;28;20023;-51
2023/12/09 10:42:05;;;;;;;21.83;13.60;;;8.90;99.90;;;;;;4934363;28;20122;-56
2023/12/09 10:44:31;;;;;;;33.33;13.35;;;9.20;99.90;;;;;;4951309;29;20035;-53
2023/12/09 10:46:56;;;;;;;18.42;11.13;;;9.30;99.90;;;;;;4951408;28;20031;-53
2023/12/09 10:49:22;;;;;;;22.50;10.98;;;9.40;99.90;;;;;;4951544;28;20077;-51
2023/12/09 10:51:48;;;;;;;16.30;9.70;;;9.50;99.90;;;;;;4938315;28;20114;-54
2023/12/09 10:54:13;;;;;;;15.40;8.32;;;9.50;99.90;;;;;;4953363;28;20035;-49
2023/12/09 10:56:39;;;;;;;18.38;8.77;;;9.50;99.90;;;;;;4970520;28;20035;-49
2023/12/09 10:59:06;;;;;;;17.60;8.13;;;9.40;99.90;;;;;;4970865;28;20026;-50
2023/12/09 11:01:31;;;;;;;17.88;8.55;;;9.30;99.90;;;;;;4952867;28;20109;-49
2023/12/09 11:03:58;;;;;;;11.63;7.90;;;9.10;99.90;;;;;;4970386;28;20542;-47
2023/12/09 11:06:27;;;;;;;20.67;8.05;;;9.10;99.90;;;;;;4970375;28;20072;-50
2023/12/09 11:08:53;;;;;;;16.65;9.13;;;9.00;99.90;;;;;;4970239;28;20038;-46
2023/12/09 11:11:19;;;;;;;17.80;9.05;;;8.90;99.90;;;;;;4961363;28;20030;-48
2023/12/09 11:13:46;;;;;;;19.23;9.38;;;8.90;99.90;;;;;;4993117;28;20048;-48
2023/12/09 11:16:19;;;;;;;15.88;9.95;;;8.80;99.90;;;;;;5038278;28;20019;-48
2023/12/09 11:18:52;;;;;;;20.02;11.35;;;8.60;99.90;;;;;;4949852;28;20509;-48
2023/12/09 11:21:23;;;;;;;50.97;28.38;;;8.60;99.90;;;;;;4953206;28;20039;-45
2023/12/09 11:23:50;;;;;;;23.27;11.35;;;8.50;99.90;;;;;;4970060;28;20019;-50
2023/12/09 11:26:20;;;;;;;20.92;11.38;;;8.40;99.90;;;;;;4970421;28;20108;-47
2023/12/09 11:28:59;;;;;;;22.25;11.07;;;8.40;99.90;;;;;;4981451;28;20031;-48
2023/12/09 11:31:41;;;;;;;20.83;12.20;;;8.40;99.90;;;;;;4988833;28;20517;-48
2023/12/09 11:34:12;;;;;;;24.55;11.57;;;8.30;99.90;;;;;;4989371;28;20171;-54
2023/12/09 11:36:38;;;;;;;18.15;10.15;;;8.30;99.90;;;;;;4989382;28;20112;-47
2023/12/09 11:39:09;;;;;;;22.75;9.75;;;8.30;99.90;;;;;;4989528;28;20428;-48
2023/12/09 11:41:36;;;;;;;22.25;11.10;;;8.30;99.90;;;;;;4989116;28;20079;-50
2023/12/09 11:44:02;;;;;;;18.23;11.10;;;8.30;99.90;;;;;;4988773;28;20039;-49
2023/12/09 11:46:32;;;;;;;22.75;10.30;;;8.30;99.90;;;;;;4971831;28;20111;-48
2023/12/09 11:48:59;;;;;;;18.60;10.55;;;8.40;99.90;;;;;;4989175;28;20076;-51
2023/12/09 11:51:26;;;;;;;23.63;10.77;;;8.40;99.90;;;;;;4989125;28;20054;-49
2023/12/09 11:53:59;;;;;;;17.20;9.13;;;8.40;99.90;;;;;;4989028;28;20501;-49
2023/12/09 11:56:26;;;;;;;17.10;8.95;;;8.40;99.90;;;;;;4989257;28;20110;-50
2023/12/09 11:58:52;;;;;;;13.73;9.10;;;8.50;99.90;;;;;;4989198;28;20036;-53
2023/12/09 12:01:18;;;;;;;19.38;9.30;;;8.60;99.90;;;;;;4989290;28;20029;-50
2023/12/09 12:03:48;;;;;;;25.00;8.43;;;8.60;99.90;;;;;;4989117;28;20033;-49
2023/12/09 12:06:15;;;;;;;14.73;8.10;;;8.60;99.90;;;;;;4989738;28;20384;-48
2023/12/09 12:08:42;;;;;;;15.57;8.70;;;8.60;99.90;;;;;;4989408;28;20026;-48
2023/12/09 12:11:07;;;;;;;17.00;8.20;;;8.70;99.90;;;;;;4988906;28;20095;-48
2023/12/09 12:13:33;;;;;;;16.33;8.05;;;8.70;99.90;;;;;;4971466;28;20026;-46
2023/12/09 12:15:59;;;;;;;17.20;8.63;;;8.70;99.90;;;;;;4989514;28;20503;-49
2023/12/09 12:18:27;;;;;;;12.77;8.13;;;8.70;99.90;;;;;;4989191;28;20109;-51
2023/12/09 12:20:52;;;;;;;14.27;7.85;;;8.70;99.90;;;;;;4988451;28;20442;-54
2023/12/09 12:23:18;;;;;;;26.85;14.63;;;8.60;99.90;;;;;;4971257;28;20119;-52
2023/12/09 12:25:43;;;;;;;21.70;11.27;;;8.60;99.90;;;;;;4988986;28;20026;-49
2023/12/09 12:28:09;;;;;;;15.55;7.68;;;8.60;99.90;;;;;;4989250;28;20246;-50
2023/12/09 12:30:35;;;;;;;13.55;8.32;;;8.50;99.90;;;;;;4990110;28;20045;-54
2023/12/09 12:33:02;;;;;;;18.20;8.52;;;8.60;99.90;;;;;;4991541;28;20027;-53